Time;durP1;ratioP1;P1;durP2;ratioP2;P2;SDS_P1;SDS_P2;PMS_P1;PMS_P2;Temp;Humidity;BMP_temperature;BMP_pressure;BME280_temperature;BME280_humidity;BME280_pressure;Samples;Min_cycle;Max_cycle;Signal;HPM_P1;HPM_P2
2022/09/14 00:00:51;;;;;;;2.47;0.57;;;;;;;19.13;45.92;98822.50;6221122;23;20517;-96
2022/09/14 00:03:17;;;;;;;1.60;0.80;;;;;;;19.17;45.74;98839.00;6221982;23;20196;-96
2022/09/14 00:05:43;;;;;;;1.70;0.70;;;;;;;19.07;46.06;98844.34;6221888;23;20153;-96
2022/09/14 00:08:10;;;;;;;1.77;0.57;;;;;;;19.03;46.31;98846.44;6221656;23;20163;-96
2022/09/14 00:10:44;;;;;;;1.40;0.70;;;;;;;19.04;46.39;98844.63;6222178;23;20450;-95
2022/09/14 00:13:13;;;;;;;1.83;0.70;;;;;;;19.12;45.95;98838.59;6222306;23;20163;-96
2022/09/14 00:15:40;;;;;;;1.17;0.50;;;;;;;19.07;46.05;98831.06;6228122;23;20153;-96
2022/09/14 00:18:09;;;;;;;1.40;0.60;;;;;;;19.03;45.96;98838.47;6231041;23;20178;-96
2022/09/14 00:20:35;;;;;;;0.87;0.40;;;;;;;18.97;46.32;98835.53;6227389;23;20154;-96
2022/09/14 00:23:01;;;;;;;1.27;0.57;;;;;;;18.91;46.58;98836.94;6226321;23;20165;-96
2022/09/14 00:25:27;;;;;;;1.13;0.60;;;;;;;18.93;46.47;98837.63;6223996;23;20577;-96
2022/09/14 00:27:54;;;;;;;1.77;0.50;;;;;;;18.93;45.94;98834.97;6222026;23;20623;-96
2022/09/14 00:30:20;;;;;;;1.63;0.40;;;;;;;18.92;46.11;98835.09;6222347;23;20161;-96
2022/09/14 00:32:46;;;;;;;0.93;0.40;;;;;;;19.00;45.91;98833.41;6222795;23;20153;-96
2022/09/14 00:35:12;;;;;;;2.13;0.93;;;;;;;18.97;46.25;98833.69;6223815;23;20592;-96
2022/09/14 00:37:38;;;;;;;2.50;0.50;;;;;;;19.02;45.98;98847.41;6223513;23;20157;-96
2022/09/14 00:40:05;;;;;;;1.80;0.70;;;;;;;18.90;46.50;98843.22;6222683;23;20264;-96
2022/09/14 00:42:30;;;;;;;1.00;0.60;;;;;;;18.87;46.32;98843.50;6222982;23;20223;-96
2022/09/14 00:45:07;;;;;;;0.77;0.30;;;;;;;18.90;46.02;98848.53;6223399;23;20157;-96
2022/09/14 00:47:33;;;;;;;1.73;0.63;;;;;;;18.89;46.23;98851.34;6222702;23;20141;-95
2022/09/14 00:50:01;;;;;;;0.80;0.50;;;;;;;18.88;46.12;98845.19;6220984;23;20640;-96
2022/09/14 00:52:31;;;;;;;0.93;0.40;;;;;;;18.90;46.00;98845.88;6222227;23;20160;-96
2022/09/14 00:55:03;;;;;;;1.60;0.60;;;;;;;18.90;45.80;98845.88;6224069;23;20152;-96
2022/09/14 00:57:35;;;;;;;2.63;0.93;;;;;;;18.79;46.51;98848.66;6222361;23;20214;-96
2022/09/14 01:00:03;;;;;;;1.47;0.77;;;;;;;18.82;46.15;98844.88;6221916;23;20173;-96
2022/09/14 01:02:29;;;;;;;1.20;0.60;;;;;;;18.78;46.58;98846.16;6221033;23;20539;-96
2022/09/14 01:04:54;;;;;;;0.90;0.53;;;;;;;18.73;46.47;98845.72;6221536;23;20164;-96
2022/09/14 01:07:26;;;;;;;1.67;0.63;;;;;;;18.61;46.71;98852.13;6222039;23;20591;-96
2022/09/14 01:09:57;;;;;;;1.60;0.53;;;;;;;18.59;46.99;98854.09;6221675;23;20153;-95
2022/09/14 01:12:38;;;;;;;0.97;0.53;;;;;;;18.60;46.75;98858.44;6220301;23;20164;-96
2022/09/14 01:15:42;;;;;;;1.40;0.53;;;;;;;18.53;46.68;98851.97;6222198;23;20192;-96
2022/09/14 01:18:17;;;;;;;2.40;0.80;;;;;;;18.45;46.98;98846.50;6220720;23;20198;-96
2022/09/14 01:20:50;;;;;;;1.60;0.80;;;;;;;18.45;46.94;98847.31;6222127;23;20668;-96
2022/09/14 01:23:56;;;;;;;2.13;0.57;;;;;;;18.33;47.72;98841.31;6222538;23;20149;-96
2022/09/14 01:26:40;;;;;;;1.90;0.73;;;;;;;18.26;48.06;98842.00;6223083;23;20160;-96
2022/09/14 01:29:26;;;;;;;1.03;0.50;;;;;;;18.29;47.59;98841.72;6222758;23;20160;-96
2022/09/14 01:32:08;;;;;;;0.73;0.40;;;;;;;18.20;47.84;98846.03;6223118;23;20156;-96
2022/09/14 01:34:34;;;;;;;1.63;0.80;;;;;;;18.17;47.69;98840.16;6223092;23;20502;-96
2022/09/14 01:37:31;;;;;;;1.53;0.63;;;;;;;18.05;48.27;98838.56;6222933;23;20226;-96
2022/09/14 01:40:04;;;;;;;2.10;1.00;;;;;;;18.10;47.55;98841.66;6221597;23;20185;-95
2022/09/14 01:42:32;;;;;;;3.33;0.70;;;;;;;18.10;47.37;98846.97;6220299;23;20145;-96
2022/09/14 01:45:02;;;;;;;1.87;0.80;;;;;;;17.99;46.86;98844.41;6223164;23;20157;-96
2022/09/14 01:47:44;;;;;;;2.20;0.70;;;;;;;17.94;47.73;98843.97;6221845;23;20152;-96
2022/09/14 01:50:14;;;;;;;2.97;1.20;;;;;;;18.00;47.59;98843.44;6222307;23;20155;-96
2022/09/14 01:52:48;;;;;;;2.27;1.00;;;;;;;18.03;47.84;98841.34;6222927;23;20144;-96
2022/09/14 01:55:37;;;;;;;1.70;0.90;;;;;;;17.97;47.47;98851.66;6222895;23;20180;-96
2022/09/14 01:58:24;;;;;;;3.20;1.37;;;;;;;17.90;48.12;98854.00;6222277;23;20183;-95
2022/09/14 02:00:52;;;;;;;2.10;1.20;;;;;;;17.90;48.03;98850.53;6221964;23;20207;-96
2022/09/14 02:03:24;;;;;;;1.63;0.87;;;;;;;17.85;47.89;98848.25;6222379;23;20211;-96
2022/09/14 02:06:19;;;;;;;2.00;1.20;;;;;;;17.96;47.77;98849.97;6221398;23;20153;-96
2022/09/14 02:08:44;;;;;;;3.43;1.17;;;;;;;18.04;47.79;98856.31;6217912;23;20153;-96
2022/09/14 02:11:10;;;;;;;2.47;1.17;;;;;;;18.03;47.80;98851.97;6222789;23;20167;-96
2022/09/14 02:13:35;;;;;;;2.17;1.10;;;;;;;18.06;47.23;98851.69;6221296;23;20160;-96
2022/09/14 02:16:01;;;;;;;1.77;0.97;;;;;;;17.96;47.54;98856.13;6221740;23;20167;-96
2022/09/14 02:18:27;;;;;;;2.47;1.20;;;;;;;17.88;47.87;98853.31;6221623;23;20260;-96
2022/09/14 02:21:03;;;;;;;2.00;0.93;;;;;;;17.79;47.90;98844.31;6225895;23;20167;-96
2022/09/14 02:23:29;;;;;;;2.60;1.00;;;;;;;17.89;47.64;98848.84;6232013;23;20171;-96
2022/09/14 02:25:56;;;;;;;2.10;1.03;;;;;;;17.91;47.43;98845.09;6227826;23;20242;-96
2022/09/14 02:28:22;;;;;;;2.73;1.40;;;;;;;18.00;47.50;98851.41;6223005;23;20162;-96
2022/09/14 02:31:11;;;;;;;2.33;0.93;;;;;;;17.96;47.64;98855.28;6220921;23;20247;-96
2022/09/14 02:34:07;;;;;;;2.47;1.33;;;;;;;17.91;47.53;98852.19;6232642;23;20149;-96
2022/09/14 02:36:51;;;;;;;2.63;1.20;;;;;;;17.70;48.37;98853.09;6230765;23;20145;-96
2022/09/14 02:39:26;;;;;;;1.50;1.00;;;;;;;17.74;48.24;98851.84;6228597;23;20181;-96
2022/09/14 02:42:23;;;;;;;2.10;1.30;;;;;;;17.56;49.24;98847.28;6230148;23;20144;-96
2022/09/14 02:45:21;;;;;;;2.70;1.40;;;;;;;17.43;49.82;98858.06;6228987;23;20141;-96
2022/09/14 02:47:54;;;;;;;2.07;1.10;;;;;;;17.44;49.82;98854.44;6229019;23;20143;-96
2022/09/14 02:50:39;;;;;;;6.53;1.40;;;;;;;17.46;50.05;98859.59;6231376;23;20141;-96
2022/09/14 02:53:14;;;;;;;3.23;1.30;;;;;;;17.37;50.10;98853.28;6232943;23;20174;-96
2022/09/14 02:55:46;;;;;;;2.87;1.20;;;;;;;17.45;49.93;98855.28;6231236;23;20158;-96
2022/09/14 02:58:13;;;;;;;3.27;1.10;;;;;;;17.48;49.46;98863.81;6228917;23;20180;-96
2022/09/14 03:00:42;;;;;;;2.40;0.87;;;;;;;17.51;49.12;98860.03;6222499;23;20551;-96
2022/09/14 03:03:10;;;;;;;2.10;1.03;;;;;;;17.47;49.18;98867.44;6222292;23;20252;-96
2022/09/14 03:05:36;;;;;;;3.20;1.50;;;;;;;17.46;49.40;98860.44;6222000;23;20154;-96
2022/09/14 03:08:02;;;;;;;3.93;1.27;;;;;;;17.42;49.30;98867.00;6221210;23;20164;-96
2022/09/14 03:10:28;;;;;;;2.20;1.00;;;;;;;17.39;49.57;98869.03;6220085;23;20155;-95
2022/09/14 03:12:54;;;;;;;1.80;0.97;;;;;;;17.43;49.29;98873.94;6220052;23;20160;-96
2022/09/14 03:15:19;;;;;;;1.77;1.10;;;;;;;17.38;49.24;98870.84;6220185;23;20166;-95
2022/09/14 03:17:46;;;;;;;2.53;1.13;;;;;;;17.34;49.42;98873.91;6220306;23;20595;-96
2022/09/14 03:20:14;;;;;;;4.13;1.20;;;;;;;17.23;49.56;98871.31;6222983;23;20178;-96
2022/09/14 03:22:39;;;;;;;1.57;0.80;;;;;;;17.12;49.80;98877.50;6222462;23;20280;-96
2022/09/14 03:25:05;;;;;;;2.03;1.03;;;;;;;17.11;49.60;98878.47;6221863;23;20191;-96
2022/09/14 03:27:31;;;;;;;1.47;0.87;;;;;;;17.09;50.24;98880.41;6221580;23;20175;-96
2022/09/14 03:29:56;;;;;;;1.73;1.00;;;;;;;17.06;49.79;98878.00;6221651;23;20243;-96
2022/09/14 03:32:22;;;;;;;1.90;1.10;;;;;;;17.02;50.17;98881.88;6222136;23;20239;-96
2022/09/14 03:34:47;;;;;;;1.90;1.00;;;;;;;17.08;49.99;98884.03;6223441;23;20157;-96
2022/09/14 03:37:13;;;;;;;1.70;1.10;;;;;;;17.14;49.56;98888.78;6222036;23;20650;-96
2022/09/14 03:39:39;;;;;;;2.97;1.30;;;;;;;17.09;49.68;98880.41;6222007;23;20208;-96
2022/09/14 03:42:04;;;;;;;2.23;1.30;;;;;;;17.07;49.54;98882.34;6221338;23;20222;-96
2022/09/14 03:44:30;;;;;;;2.00;1.10;;;;;;;17.01;49.88;98885.47;6221706;23;20573;-96
2022/09/14 03:46:55;;;;;;;4.33;2.33;;;;;;;16.96;50.19;98883.22;6221962;23;20149;-96
2022/09/14 03:49:21;;;;;;;2.70;1.50;;;;;;;16.95;50.23;98878.06;6221698;23;20152;-96
2022/09/14 03:51:46;;;;;;;2.43;1.23;;;;;;;16.92;50.68;98884.47;6221679;23;20264;-96
2022/09/14 03:54:12;;;;;;;1.57;0.97;;;;;;;16.91;50.24;98876.63;6221193;23;20287;-96
2022/09/14 03:56:37;;;;;;;4.13;1.30;;;;;;;16.81;50.42;98887.13;6221559;23;20213;-96
2022/09/14 03:59:03;;;;;;;2.20;0.90;;;;;;;16.80;51.09;98882.78;6221890;23;20262;-96
2022/09/14 04:01:29;;;;;;;3.27;1.30;;;;;;;16.71;51.19;98888.00;6222089;23;20171;-96
2022/09/14 04:03:54;;;;;;;1.83;1.00;;;;;;;16.73;51.33;98886.91;6221783;23;20518;-96
2022/09/14 04:06:20;;;;;;;1.73;1.20;;;;;;;16.80;51.18;98879.31;6221768;23;20576;-96
2022/09/14 04:08:46;;;;;;;1.67;1.00;;;;;;;16.80;51.42;98887.25;6219442;23;20152;-96
2022/09/14 04:11:19;;;;;;;2.77;1.57;;;;;;;16.75;51.70;98884.97;6221231;23;20238;-96
2022/09/14 04:13:45;;;;;;;2.43;1.10;;;;;;;16.70;52.00;98886.31;6222231;23;20202;-96
2022/09/14 04:16:11;;;;;;;3.07;1.40;;;;;;;16.72;52.20;98881.78;6221761;23;20163;-96
2022/09/14 04:18:37;;;;;;;2.70;1.20;;;;;;;16.68;52.52;98875.03;6221588;23;20190;-96
2022/09/14 04:21:05;;;;;;;5.73;1.30;;;;;;;16.71;52.65;98874.78;6223532;23;20234;-96
2022/09/14 04:23:31;;;;;;;3.17;1.40;;;;;;;16.73;52.73;98875.50;6223430;23;20209;-96
2022/09/14 04:25:57;;;;;;;2.87;1.60;;;;;;;16.80;52.56;98879.31;6223505;23;20162;-96
2022/09/14 04:28:23;;;;;;;2.63;1.37;;;;;;;16.83;52.53;98881.69;6221142;23;20166;-96
2022/09/14 04:31:00;;;;;;;4.63;1.87;;;;;;;16.93;51.71;98893.22;6221593;23;20571;-96
2022/09/14 04:33:29;;;;;;;3.17;1.37;;;;;;;16.95;52.04;98889.50;6222521;23;20156;-96
2022/09/14 04:36:06;;;;;;;2.20;1.20;;;;;;;16.89;52.23;98891.81;6221625;23;20239;-96
2022/09/14 04:38:33;;;;;;;3.03;1.30;;;;;;;16.88;52.25;98893.59;6221455;23;20176;-96
2022/09/14 04:40:59;;;;;;;4.10;1.30;;;;;;;16.92;52.53;98888.91;6221581;23;20538;-96
2022/09/14 04:43:26;;;;;;;2.63;1.50;;;;;;;16.92;52.96;98894.19;6221610;23;20604;-96
2022/09/14 04:45:52;;;;;;;2.70;1.30;;;;;;;16.90;53.35;98891.66;6221092;23;20151;-96
2022/09/14 04:48:18;;;;;;;3.00;1.20;;;;;;;16.98;53.35;98894.53;6221257;23;20145;-96
2022/09/14 04:50:44;;;;;;;6.30;1.37;;;;;;;16.98;53.71;98888.41;6221090;23;20155;-96
2022/09/14 04:53:10;;;;;;;2.23;1.30;;;;;;;17.06;53.97;98896.53;6220974;23;20169;-95
2022/09/14 04:55:36;;;;;;;2.73;1.50;;;;;;;17.06;54.11;98891.22;6218372;23;20221;-95
2022/09/14 04:58:03;;;;;;;2.40;1.63;;;;;;;17.05;53.90;98884.28;6220667;23;20160;-95
2022/09/14 05:00:28;;;;;;;3.60;1.50;;;;;;;17.20;53.44;98897.09;6220954;23;20149;-96
2022/09/14 05:02:54;;;;;;;2.70;1.37;;;;;;;17.30;52.95;98893.66;6220917;23;20172;-96
2022/09/14 05:05:19;;;;;;;2.27;1.20;;;;;;;17.37;52.67;98895.69;6221011;23;20313;-96
2022/09/14 05:07:45;;;;;;;3.73;1.67;;;;;;;17.51;52.54;98889.19;6221191;23;20232;-96
2022/09/14 05:10:11;;;;;;;2.87;1.57;;;;;;;17.61;52.20;98888.31;6221175;23;20176;-96
2022/09/14 05:12:36;;;;;;;2.57;1.50;;;;;;;17.76;51.98;98881.72;6220575;23;20153;-96
2022/09/14 05:15:02;;;;;;;2.50;1.30;;;;;;;17.88;51.04;98879.81;6221410;23;20464;-96
2022/09/14 05:17:27;;;;;;;2.30;1.20;;;;;;;18.03;50.75;98882.97;6221515;23;20157;-96
2022/09/14 05:19:55;;;;;;;2.50;1.40;;;;;;;18.22;50.38;98888.31;6221341;23;20351;-96
2022/09/14 05:22:21;;;;;;;3.37;1.63;;;;;;;18.26;49.57;98881.78;6221014;23;20164;-96
2022/09/14 05:24:46;;;;;;;2.43;1.40;;;;;;;18.44;49.48;98882.81;6220895;23;20161;-96
2022/09/14 05:27:12;;;;;;;7.03;1.30;;;;;;;18.56;49.13;98886.22;6220605;23;20195;-95
2022/09/14 05:29:39;;;;;;;2.73;1.63;;;;;;;18.72;49.06;98887.38;6220925;23;20529;-96
2022/09/14 05:32:05;;;;;;;2.00;1.10;;;;;;;18.90;48.95;98893.69;6221356;23;20157;-96
2022/09/14 05:34:31;;;;;;;2.43;1.40;;;;;;;18.96;48.55;98895.78;6221610;23;20174;-96
2022/09/14 05:36:56;;;;;;;5.63;1.90;;;;;;;18.99;48.54;98887.56;6220153;23;20153;-96
2022/09/14 05:39:23;;;;;;;2.30;1.23;;;;;;;19.21;48.40;98894.38;6221433;23;20286;-96
2022/09/14 05:41:50;;;;;;;4.00;1.90;;;;;;;19.32;47.69;98891.59;6220942;23;20153;-96
2022/09/14 05:44:18;;;;;;;2.87;1.13;;;;;;;19.52;47.26;98900.41;6221485;23;20161;-96
2022/09/14 05:46:46;;;;;;;2.70;1.30;;;;;;;19.69;46.74;98898.81;6221054;23;20164;-95
2022/09/14 05:49:12;;;;;;;5.43;1.73;;;;;;;19.88;46.91;98899.63;6220453;23;20150;-96
2022/09/14 05:51:37;;;;;;;3.10;1.80;;;;;;;20.08;46.30;98897.72;6220243;23;20168;-96
2022/09/14 05:54:08;;;;;;;2.17;1.17;;;;;;;20.21;46.15;98907.06;6220403;23;20157;-96
2022/09/14 05:56:33;;;;;;;8.97;1.67;;;;;;;20.34;45.40;98900.56;6221696;23;20550;-96
2022/09/14 05:58:59;;;;;;;7.17;1.30;;;;;;;20.42;44.65;98892.69;6221159;23;20187;-95
2022/09/14 06:01:29;;;;;;;2.40;1.23;;;;;;;20.49;45.27;98893.78;6220854;23;20171;-96
2022/09/14 06:03:59;;;;;;;2.07;1.00;;;;;;;20.72;45.25;98900.38;6220903;23;20172;-96
2022/09/14 06:06:29;;;;;;;1.77;1.37;;;;;;;20.92;44.42;98895.75;6219799;23;20186;-95
2022/09/14 06:09:18;;;;;;;2.77;1.17;;;;;;;21.14;43.82;98898.00;6220350;23;20144;-96
2022/09/14 06:11:44;;;;;;;2.23;1.37;;;;;;;21.37;43.07;98902.69;6197562;23;20496;-96
2022/09/14 06:14:21;;;;;;;;;;;;;;;;;;;;;
2022/09/14 06:16:52;;;;;;;2.43;1.53;;;;;;;21.56;42.52;98904.34;6246485;23;20221;-96
2022/09/14 06:19:22;;;;;;;1.87;0.97;;;;;;;21.69;42.27;98911.94;6221044;23;20256;-96
2022/09/14 06:21:55;;;;;;;2.40;1.10;;;;;;;22.06;41.68;98907.22;6220716;23;20147;-96
2022/09/14 06:24:36;;;;;;;3.33;1.20;;;;;;;22.40;41.60;98917.91;6220606;23;20141;-96
2022/09/14 06:27:15;;;;;;;2.27;1.17;;;;;;;22.76;40.91;98910.53;6246669;23;20568;-96
2022/09/14 06:29:53;;;;;;;;;;;;;;;;;;;;;
2022/09/14 06:36:08;;;;;;;2.03;1.00;;;;;;;23.67;39.52;98931.72;6225624;23;20206;-96
2022/09/14 06:38:50;;;;;;;;;;;;;;;;;;;;;
2022/09/14 06:41:51;;;;;;;;;;;;;;;;;;;;;
2022/09/14 06:44:47;;;;;;;3.43;1.47;;;;;;;24.68;37.38;98932.84;6243330;23;20573;-95
2022/09/14 06:51:06;;;;;;;4.20;1.17;;;;;;;25.80;35.55;98926.91;6230008;23;20149;-96
2022/09/14 06:53:43;;;;;;;2.10;1.20;;;;;;;26.29;35.72;98920.03;6217875;23;20560;-96
2022/09/14 06:56:57;;;;;;;1.73;0.90;;;;;;;26.84;34.25;98912.31;6220517;23;20137;-96
2022/09/14 07:31:20;;;;;;;6.03;1.00;;;;;;;29.78;26.59;98925.13;5813577;24;20236;-94
2022/09/14 07:33:46;;;;;;;1.15;0.68;;;;;;;29.46;27.72;98929.47;5930419;24;20162;-95
2022/09/14 07:36:47;;;;;;;1.67;0.90;;;;;;;29.33;28.10;98924.03;6012974;23;20167;-96
2022/09/14 07:40:14;;;;;;;1.60;0.90;;;;;;;29.64;28.10;98929.69;6271208;22;20177;-96
2022/09/14 07:53:17;;;;;;;1.20;0.80;;;;;;;30.29;28.08;98922.63;6188459;23;20162;-96
2022/09/14 08:03:50;;;;;;;;;;;;;;;;;;;;;
2022/09/14 08:07:22;;;;;;;2.65;0.63;;;;;;;30.57;27.52;98909.66;6100364;23;20202;-96
2022/09/14 08:10:11;;;;;;;1.20;0.80;;;;;;;30.93;26.94;98914.50;6191704;23;20494;-96
2022/09/14 08:12:59;;;;;;;;;;;;;;;;;;;;;
2022/09/14 08:15:44;;;;;;;;;;;;;;;;;;;;;
2022/09/14 08:18:45;;;;;;;2.38;0.73;;;;;;;30.54;26.89;98903.81;6249779;23;20216;-96
2022/09/14 08:21:15;;;;;;;5.28;0.82;;;;;;;30.50;26.80;98903.44;6249380;23;20579;-96
2022/09/14 08:24:39;;;;;;;1.70;0.70;;;;;;;30.67;26.93;98901.06;6223393;23;20165;-96
2022/09/14 08:31:20;;;;;;;;;;;;;;;;;;;;;
2022/09/14 08:34:11;;;;;;;4.00;1.05;;;;;;;30.65;26.66;98900.47;5957798;24;20234;-96
2022/09/14 08:36:50;;;;;;;1.83;0.93;;;;;;;30.96;26.70;98892.44;6005290;23;20177;-96
2022/09/14 08:39:19;;;;;;;2.35;0.90;;;;;;;31.35;26.85;98896.75;6102296;23;20214;-96
2022/09/14 08:42:23;;;;;;;1.33;0.75;;;;;;;31.39;26.03;98888.00;6194642;23;20177;-96
2022/09/14 09:06:12;;;;;;;;;;;;;;;;;;;;;
2022/09/14 09:09:51;;;;;;;1.20;0.47;;;;;;;32.33;24.90;98859.84;5989738;24;20259;-96
2022/09/14 09:13:19;;;;;;;;;;;;;;;;;;;;;
2022/09/14 09:16:00;;;;;;;1.10;0.50;;;;;;;32.12;25.07;98864.66;5973336;24;20246;-96
2022/09/14 09:19:07;;;;;;;;;;;;;;;;;;;;;
2022/09/14 09:28:21;;;;;;;1.13;0.50;;;;;;;31.80;25.58;98852.22;6102766;23;20158;-94
2022/09/14 09:31:05;;;;;;;;;;;;;;;;;;;;;
2022/09/14 09:33:31;;;;;;;0.93;0.43;;;;;;;31.80;25.22;98845.97;6221133;23;20218;-96
2022/09/14 09:35:57;;;;;;;1.55;0.50;;;;;;;31.75;25.42;98843.09;6218660;23;20158;-93
2022/09/14 09:38:36;;;;;;;0.55;0.25;;;;;;;32.05;25.52;98842.19;6217531;23;20585;-96
2022/09/14 09:41:23;;;;;;;;;;;;;;;;;;;;;
2022/09/14 09:44:15;;;;;;;;;;;;;;;;;;;;;
2022/09/14 09:47:52;;;;;;;1.17;0.60;;;;;;;31.69;24.79;98833.97;6229150;23;20184;-96
2022/09/14 09:50:26;;;;;;;0.75;0.50;;;;;;;31.45;26.20;98832.06;6236460;23;20240;-96
2022/09/14 09:57:06;;;;;;;0.75;0.40;;;;;;;32.09;25.37;98808.16;6214042;23;20203;-96
2022/09/14 10:04:04;;;;;;;;;;;;;;;;;;;;;
2022/09/14 10:06:31;;;;;;;0.80;0.50;;;;;;;32.99;24.87;98791.94;6078973;23;20588;-96
2022/09/14 10:12:29;;;;;;;1.65;0.50;;;;;;;32.89;24.39;98797.13;6080436;23;20171;-95
2022/09/14 10:15:04;;;;;;;1.17;0.40;;;;;;;32.84;24.49;98803.22;6107693;23;20159;-96
2022/09/14 10:18:42;;;;;;;;;;;;;;;;;;;;;
2022/09/14 10:21:14;;;;;;;1.13;0.40;;;;;;;33.44;23.50;98795.81;6125228;23;20260;-95
2022/09/14 10:31:41;;;;;;;3.33;0.30;;;;;;;34.09;22.40;98777.53;6012024;23;20168;-95
2022/09/14 10:34:48;;;;;;;;;;;;;;;;;;;;;
2022/09/14 10:37:51;;;;;;;1.05;0.20;;;;;;;34.08;22.43;98783.19;6077220;23;20227;-96
2022/09/14 10:44:32;;;;;;;2.47;0.70;;;;;;;34.19;22.30;98780.44;6156144;23;20164;-96
2022/09/14 10:47:59;;;;;;;0.70;0.20;;;;;;;34.27;20.83;98769.19;6219454;23;20228;-96
2022/09/14 10:54:34;;;;;;;0.82;0.32;;;;;;;34.64;20.88;98763.38;6195601;23;20232;-96
2022/09/14 10:57:09;;;;;;;0.70;0.40;;;;;;;34.70;21.19;98768.66;6131718;23;20159;-95
2022/09/14 11:06:17;;;;;;;1.95;0.70;;;;;;;34.61;21.03;98763.88;6063391;23;20237;-95
2022/09/14 11:09:03;;;;;;;1.92;0.80;;;;;;;34.34;21.53;98753.53;6115816;23;20485;-96
2022/09/14 11:11:33;;;;;;;3.05;0.80;;;;;;;34.53;21.79;98746.84;6131890;23;20143;-93
2022/09/14 11:14:31;;;;;;;0.95;0.30;;;;;;;34.79;22.42;98750.88;6164957;23;20154;-93
2022/09/14 11:17:20;;;;;;;0.47;0.25;;;;;;;34.92;21.08;98760.63;6131136;23;20155;-95
2022/09/14 11:20:31;;;;;;;;;;;;;;;;;;;;;
2022/09/14 11:23:35;;;;;;;0.82;0.38;;;;;;;35.16;21.02;98734.91;6155210;23;20649;-95
2022/09/14 11:26:30;;;;;;;0.43;0.28;;;;;;;35.50;20.05;98730.25;6079441;23;20248;-95
2022/09/14 11:29:14;;;;;;;3.85;0.40;;;;;;;35.51;19.95;98734.63;6218339;23;20196;-96
2022/09/14 11:31:56;;;;;;;2.22;0.55;;;;;;;35.19;20.85;98735.22;6217054;23;20158;-94
2022/09/14 11:34:42;;;;;;;1.70;0.52;;;;;;;35.32;20.52;98734.09;6218510;23;20150;-95
2022/09/14 11:37:16;;;;;;;0.82;0.47;;;;;;;35.30;20.92;98729.97;6217672;23;20232;-95
2022/09/14 11:40:06;;;;;;;3.28;0.50;;;;;;;35.01;21.11;98724.53;6218823;23;20601;-95
2022/09/14 11:42:51;;;;;;;1.80;0.50;;;;;;;35.04;21.27;98728.66;6219334;23;20162;-94
2022/09/14 11:45:25;;;;;;;2.05;0.57;;;;;;;35.23;20.69;98718.38;6219544;23;20209;-95
2022/09/14 11:48:24;;;;;;;1.50;0.52;;;;;;;35.21;20.17;98726.81;6219287;23;20152;-95
2022/09/14 11:51:10;;;;;;;2.35;0.60;;;;;;;35.36;20.80;98718.03;6218944;23;20200;-96
2022/09/14 11:53:38;;;;;;;0.85;0.40;;;;;;;35.41;20.71;98718.94;6220062;23;20212;-96
2022/09/14 11:56:04;;;;;;;0.70;0.22;;;;;;;35.57;20.41;98711.84;6218137;23;20537;-95
2022/09/14 11:58:30;;;;;;;0.70;0.25;;;;;;;35.75;19.69;98709.63;6216531;23;20182;-96
2022/09/14 12:01:29;;;;;;;0.30;0.20;;;;;;;36.27;20.00;98703.72;6216923;23;20228;-94
2022/09/14 12:04:00;;;;;;;0.95;0.30;;;;;;;36.47;19.71;98706.69;6215069;23;20165;-96
2022/09/14 12:06:47;;;;;;;;;;;;;;;;;;;;;
2022/09/14 12:09:24;;;;;;;0.60;0.30;;;;;;;36.50;19.11;98691.72;6252769;23;20168;-95
2022/09/14 12:12:06;;;;;;;1.75;0.50;;;;;;;36.49;19.30;98679.97;6226399;23;20214;-96
2022/09/14 12:14:44;;;;;;;2.00;0.70;;;;;;;36.70;19.55;98670.88;6221714;23;20149;-96
2022/09/14 12:17:43;;;;;;;0.95;0.30;;;;;;;36.78;18.66;98659.50;6223805;23;20183;-96
2022/09/14 12:20:53;;;;;;;3.00;0.45;;;;;;;36.71;19.85;98661.63;6218873;23;20259;-96
2022/09/14 12:23:59;;;;;;;0.57;0.30;;;;;;;36.85;19.15;98651.06;6221701;23;20145;-95
2022/09/14 12:27:13;;;;;;;0.95;0.50;;;;;;;36.87;19.38;98649.72;6222817;23;20141;-95
2022/09/14 12:30:37;;;;;;;;;;;;;;;;;;;;;
2022/09/14 12:36:58;;;;;;;3.53;0.60;;;;;;;36.88;19.06;98643.16;6247367;23;20218;-95
2022/09/14 12:39:34;;;;;;;1.50;0.50;;;;;;;37.12;18.89;98631.88;6220725;23;20256;-94
2022/09/14 12:42:23;;;;;;;1.10;0.30;;;;;;;37.28;19.12;98637.19;6220867;23;20604;-95
2022/09/14 12:45:49;;;;;;;0.85;0.43;;;;;;;37.09;18.62;98640.59;6221505;23;20171;-95
2022/09/14 12:48:58;;;;;;;;;;;;;;;;;;;;;
2022/09/14 12:51:43;;;;;;;;;;;;;;;;;;;;;
2022/09/14 12:54:45;;;;;;;0.77;0.30;;;;;;;37.32;18.83;98632.00;6249467;23;20224;-96
2022/09/14 13:01:01;;;;;;;0.77;0.30;;;;;;;37.04;19.67;98629.63;6217374;23;20216;-95
2022/09/14 13:03:58;;;;;;;2.17;1.17;;;;;;;37.02;19.16;98640.84;6196366;23;20157;-96
2022/09/14 13:06:33;;;;;;;0.63;0.32;;;;;;;36.93;18.82;98640.47;6222052;23;20229;-94
2022/09/14 13:09:03;;;;;;;0.85;0.40;;;;;;;37.06;18.65;98630.19;6222742;23;20143;-95
2022/09/14 13:11:39;;;;;;;2.42;0.68;;;;;;;37.13;18.85;98628.91;6221723;23;20576;-96
2022/09/14 13:14:35;;;;;;;1.75;0.60;;;;;;;36.79;18.26;98636.53;6221874;23;20140;-95
2022/09/14 13:17:16;;;;;;;1.30;0.40;;;;;;;36.73;18.74;98629.41;6221650;23;20164;-94
2022/09/14 13:19:56;;;;;;;1.15;0.40;;;;;;;36.88;18.21;98634.97;6220678;23;20180;-94
2022/09/14 13:22:28;;;;;;;0.73;0.50;;;;;;;36.40;18.81;98642.47;6220869;23;20631;-93
2022/09/14 13:25:05;;;;;;;1.65;0.30;;;;;;;36.07;18.93;98638.00;6220825;23;20185;-94
2022/09/14 13:27:48;;;;;;;;;;;;;;;;;;;;;
2022/09/14 13:30:19;;;;;;;2.25;0.80;;;;;;;36.47;18.95;98637.59;6247941;23;20213;-95
2022/09/14 13:32:48;;;;;;;6.75;1.63;;;;;;;36.84;19.10;98649.44;6220848;23;20157;-93
2022/09/14 13:35:59;;;;;;;;;;;;;;;;;;;;;
2022/09/14 13:38:39;;;;;;;2.03;0.70;;;;;;;37.03;18.78;98658.88;6246595;23;20232;-95
2022/09/14 13:41:10;;;;;;;1.25;0.40;;;;;;;37.21;18.90;98652.19;6221444;23;20216;-94
2022/09/14 13:43:36;;;;;;;0.98;0.40;;;;;;;37.45;18.64;98653.41;6221385;23;20145;-95
2022/09/14 13:46:06;;;;;;;6.47;0.85;;;;;;;37.57;18.98;98647.75;6220740;23;20688;-94
2022/09/14 13:48:31;;;;;;;1.48;0.47;;;;;;;37.70;18.87;98650.81;6220443;23;20228;-96
2022/09/14 13:51:06;;;;;;;1.58;0.50;;;;;;;37.76;18.99;98640.72;6221064;23;20188;-96
2022/09/14 13:53:47;;;;;;;2.38;0.50;;;;;;;37.60;18.43;98641.75;6221787;23;20223;-96
2022/09/14 13:56:31;;;;;;;1.42;0.60;;;;;;;37.01;18.66;98643.81;6221490;23;20145;-94
2022/09/14 13:59:05;;;;;;;2.28;0.73;;;;;;;36.67;19.61;98654.19;6222099;23;20526;-94
2022/09/14 14:01:39;;;;;;;2.08;0.68;;;;;;;36.74;19.15;98657.53;6248137;23;20148;-94
2022/09/14 14:04:05;;;;;;;1.98;0.63;;;;;;;36.58;19.13;98656.59;6216104;23;20173;-95
2022/09/14 14:06:36;;;;;;;1.23;0.43;;;;;;;36.43;19.50;98656.41;6217340;23;20153;-96
2022/09/14 14:09:09;;;;;;;4.70;0.88;;;;;;;36.56;19.53;98653.28;6216531;23;20154;-95
2022/09/14 14:11:37;;;;;;;1.65;0.70;;;;;;;36.80;19.34;98642.81;6215480;23;20253;-88
2022/09/14 14:14:14;;;;;;;0.80;0.43;;;;;;;37.05;19.19;98650.44;6215784;23;20150;-88
2022/09/14 14:16:41;;;;;;;0.80;0.45;;;;;;;37.09;19.20;98651.53;6214466;23;20164;-88
2022/09/14 14:19:29;;;;;;;1.35;0.80;;;;;;;36.92;19.32;98660.66;6215662;23;20639;-88
2022/09/14 14:22:19;;;;;;;1.55;0.60;;;;;;;36.91;18.83;98658.22;6216449;23;20200;-88
2022/09/14 14:24:47;;;;;;;1.30;0.63;;;;;;;36.83;19.40;98659.53;6206538;23;20486;-88
2022/09/14 14:27:41;;;;;;;2.05;0.70;;;;;;;36.77;19.04;98659.72;6214414;23;20244;-88
2022/09/14 14:30:17;;;;;;;2.22;0.82;;;;;;;36.98;18.73;98658.84;6214104;23;20149;-88
2022/09/14 14:32:42;;;;;;;1.77;0.73;;;;;;;37.15;18.99;98658.69;6215625;23;20168;-88
2022/09/14 14:35:21;;;;;;;0.88;0.43;;;;;;;37.19;18.57;98665.25;6214394;23;20588;-88
2022/09/14 14:37:47;;;;;;;1.60;0.60;;;;;;;37.23;18.86;98658.19;6214361;23;20153;-88
2022/09/14 14:40:14;;;;;;;1.65;0.70;;;;;;;37.18;18.71;98653.53;6215808;23;20170;-88
2022/09/14 14:42:44;;;;;;;2.90;0.70;;;;;;;37.21;18.53;98647.53;6215775;23;20452;-88
2022/09/14 14:45:17;;;;;;;1.65;0.80;;;;;;;37.31;19.10;98661.25;6214052;23;20241;-88
2022/09/14 14:47:47;;;;;;;1.02;0.55;;;;;;;36.88;19.39;98659.56;6214552;23;20150;-88
2022/09/14 14:50:18;;;;;;;2.42;0.68;;;;;;;36.94;19.34;98657.69;6214574;23;20154;-88
2022/09/14 14:52:43;;;;;;;0.95;0.52;;;;;;;36.88;19.05;98656.00;6214278;23;20153;-88
2022/09/14 14:55:09;;;;;;;1.33;0.82;;;;;;;36.72;18.97;98654.22;6214261;23;20158;-87
2022/09/14 14:57:38;;;;;;;1.45;0.50;;;;;;;36.40;19.50;98662.38;6215454;23;20146;-89
2022/09/14 15:00:16;;;;;;;3.03;0.70;;;;;;;36.30;19.56;98654.09;6213802;23;20624;-88
2022/09/14 15:02:41;;;;;;;0.93;0.40;;;;;;;36.44;19.74;98649.03;6214988;23;20220;-88